createdAt,value
2019-02-07T00:01:19.828Z,69.93
2019-02-07T00:03:50.456Z,79.63
2019-02-07T00:06:21.796Z,74.07
2019-02-07T00:08:52.220Z,82.80
2019-02-07T00:11:22.653Z,77.07
2019-02-07T00:13:53.280Z,81.90
2019-02-07T00:16:24.026Z,83.33
2019-02-07T00:18:54.878Z,75.23
2019-02-07T00:21:25.478Z,79.03
2019-02-07T00:23:56.061Z,85.73
2019-02-07T00:26:26.476Z,83.43
2019-02-07T00:28:56.914Z,80.37
2019-02-07T00:31:27.780Z,77.13
2019-02-07T00:33:58.314Z,112.17
2019-02-07T00:36:28.818Z,84.53
2019-02-07T00:38:59.223Z,84.57
2019-02-07T00:41:30.152Z,82.10
2019-02-07T00:44:00.633Z,87.17
2019-02-07T00:46:31.228Z,83.70
2019-02-07T00:49:01.739Z,77.27
2019-02-07T00:51:32.177Z,71.20
2019-02-07T00:54:02.496Z,72.90
2019-02-07T00:56:33.319Z,83.73
2019-02-07T00:59:04.931Z,82.63
2019-02-07T01:01:35.443Z,73.83
2019-02-07T01:04:06.602Z,76.17
2019-02-07T01:06:37.001Z,70.13
2019-02-07T01:09:10.158Z,113.60
2019-02-07T01:11:40.642Z,67.80
2019-02-07T01:14:11.252Z,75.53
2019-02-07T01:16:41.591Z,81.73
2019-02-07T01:19:12.284Z,73.77
2019-02-07T01:21:42.713Z,75.23
2019-02-07T01:24:13.220Z,79.70
2019-02-07T01:26:43.710Z,78.67
2019-02-07T01:29:14.167Z,87.57
2019-02-07T01:31:44.859Z,75.73
2019-02-07T01:34:15.636Z,74.43
2019-02-07T01:36:46.348Z,75.07
2019-02-07T01:39:16.766Z,71.67
2019-02-07T01:41:47.187Z,79.13
2019-02-07T01:44:18.164Z,87.93
2019-02-07T01:46:48.605Z,93.43
2019-02-07T01:49:19.582Z,79.67
2019-02-07T01:51:49.980Z,91.57
2019-02-07T01:54:20.433Z,90.00
2019-02-07T01:56:52.539Z,90.00
2019-02-07T01:59:22.899Z,88.30
2019-02-07T02:01:53.382Z,109.53
2019-02-07T02:04:24.139Z,96.23
2019-02-07T02:06:54.700Z,120.50
2019-02-07T02:09:25.132Z,122.47
2019-02-07T02:11:55.486Z,80.27
2019-02-07T02:14:25.903Z,109.10
2019-02-07T02:16:56.603Z,107.13
2019-02-07T02:19:26.960Z,93.07
2019-02-07T02:21:57.315Z,112.47
2019-02-07T02:24:27.907Z,83.03
2019-02-07T02:26:58.361Z,82.73
2019-02-07T02:29:28.791Z,79.23
2019-02-07T02:31:59.201Z,108.47
2019-02-07T02:34:32.574Z,106.07
2019-02-07T02:37:03.070Z,100.73
2019-02-07T02:39:33.510Z,111.73
2019-02-07T02:42:03.841Z,110.97
2019-02-07T02:44:34.823Z,104.57
2019-02-07T02:47:05.325Z,103.63
2019-02-07T02:49:35.873Z,90.80
2019-02-07T02:52:06.322Z,80.33
2019-02-07T02:54:43.721Z,78.23
2019-02-07T02:57:14.603Z,73.37
2019-02-07T02:59:45.111Z,77.40
2019-02-07T03:02:29.980Z,104.53
2019-02-07T03:05:11.343Z,99.43
2019-02-07T03:07:59.276Z,109.03
2019-02-07T03:11:06.836Z,99.73
2019-02-07T03:14:04.830Z,89.67
2019-02-07T03:16:55.088Z,82.40
2019-02-07T03:19:47.497Z,86.27
2019-02-07T03:22:52.468Z,70.57
2019-02-07T03:25:34.559Z,107.57
2019-02-07T03:28:33.264Z,82.40
2019-02-07T03:31:24.212Z,78.23
2019-02-07T03:34:26.730Z,74.87
2019-02-07T03:37:10.680Z,64.73
2019-02-07T03:40:00.567Z,70.53
2019-02-07T03:42:50.293Z,70.30
2019-02-07T03:46:02.285Z,75.33
2019-02-07T03:48:37.582Z,68.17
2019-02-07T03:51:25.266Z,70.50
2019-02-07T03:54:13.573Z,67.03
2019-02-07T03:57:05.721Z,82.43
2019-02-07T04:00:01.475Z,76.17
2019-02-07T04:03:00.540Z,78.37
2019-02-07T04:05:49.919Z,80.03
2019-02-07T04:08:39.727Z,104.47
2019-02-07T04:11:32.066Z,103.03
2019-02-07T04:14:27.053Z,73.97
2019-02-07T04:17:19.375Z,113.80
2019-02-07T04:20:15.340Z,87.73
2019-02-07T04:23:03.451Z,121.40
2019-02-07T04:25:56.200Z,98.73
2019-02-07T04:28:42.626Z,84.60
2019-02-07T04:31:24.455Z,84.33
2019-02-07T04:34:21.612Z,78.50
2019-02-07T04:37:09.734Z,81.30
2019-02-07T04:39:54.781Z,91.67
2019-02-07T04:42:42.739Z,95.10
2019-02-07T04:45:31.006Z,88.27
2019-02-07T04:48:11.738Z,79.03
2019-02-07T04:50:59.831Z,87.93
2019-02-07T04:53:48.008Z,88.70
2019-02-07T04:56:43.280Z,84.23
2019-02-07T04:59:31.113Z,79.40
2019-02-07T05:02:11.954Z,82.80
2019-02-07T05:05:01.110Z,75.57
2019-02-07T05:07:49.162Z,101.57
2019-02-07T05:10:51.037Z,85.57
2019-02-07T05:13:46.065Z,88.03
2019-02-07T05:16:40.319Z,100.23
2019-02-07T05:19:35.382Z,90.10
2019-02-07T05:22:23.645Z,78.20
2019-02-07T05:25:15.495Z,86.13
2019-02-07T05:28:04.550Z,84.03
2019-02-07T05:30:51.999Z,83.10
2019-02-07T05:33:50.429Z,76.07
2019-02-07T05:36:33.683Z,84.10
2019-02-07T05:39:16.282Z,79.93
2019-02-07T05:41:53.565Z,64.47
2019-02-07T05:44:45.499Z,61.80
2019-02-07T05:47:36.948Z,57.50
2019-02-07T05:50:38.764Z,60.57
2019-02-07T05:53:34.763Z,52.57
2019-02-07T05:56:21.608Z,53.70
2019-02-07T05:59:08.623Z,62.83
2019-02-07T06:02:09.774Z,60.50
2019-02-07T06:05:00.746Z,58.00
2019-02-07T06:08:02.092Z,56.80
2019-02-07T06:11:00.688Z,57.17
2019-02-07T06:13:50.808Z,55.63
2019-02-07T06:16:42.957Z,57.60
2019-02-07T06:19:29.960Z,53.00
2019-02-07T06:22:24.927Z,64.73
2019-02-07T06:25:04.597Z,54.83
2019-02-07T06:27:46.521Z,67.37
2019-02-07T06:30:26.209Z,69.07
2019-02-07T06:33:30.737Z,69.77
2019-02-07T06:36:20.221Z,68.13
2019-02-07T06:39:02.438Z,64.33
2019-02-07T06:41:46.000Z,71.07
2019-02-07T06:44:50.399Z,65.23
2019-02-07T06:47:29.952Z,61.37
2019-02-07T06:50:07.314Z,67.77
2019-02-07T06:52:50.044Z,69.07
2019-02-07T06:55:54.497Z,65.27
2019-02-07T06:58:48.846Z,66.97
2019-02-07T07:01:31.067Z,57.23
2019-02-07T07:04:23.553Z,64.10
2019-02-07T07:07:11.209Z,59.97
2019-02-07T07:09:59.623Z,59.70
2019-02-07T07:12:54.535Z,61.33
2019-02-07T07:15:40.351Z,53.13
2019-02-07T07:18:27.934Z,59.37
2019-02-07T07:21:16.287Z,55.97
2019-02-07T07:24:05.883Z,59.10
2019-02-07T07:26:55.351Z,58.80
2019-02-07T07:29:43.194Z,57.40
2019-02-07T07:32:32.607Z,60.63
2019-02-07T07:35:11.781Z,57.23
2019-02-07T07:37:52.610Z,59.17
2019-02-07T07:40:44.508Z,59.13
2019-02-07T07:43:39.492Z,58.33
2019-02-07T07:46:21.254Z,61.40
2019-02-07T07:49:13.384Z,60.70
2019-02-07T07:51:56.789Z,62.17
2019-02-07T07:54:43.567Z,66.77
2019-02-07T07:57:26.492Z,64.87
2019-02-07T08:00:25.065Z,56.63
2019-02-07T08:03:19.190Z,59.40
2019-02-07T08:06:12.063Z,56.87
2019-02-07T08:09:10.430Z,62.90
2019-02-07T08:12:00.144Z,58.37
2019-02-07T08:14:48.050Z,58.40
2019-02-07T08:17:47.503Z,65.33
2019-02-07T08:20:39.979Z,66.27
2019-02-07T08:23:35.846Z,79.37
2019-02-07T08:26:22.587Z,69.73
2019-02-07T08:29:20.980Z,67.67
2019-02-07T08:32:02.192Z,63.57
2019-02-07T08:34:43.361Z,66.13
2019-02-07T08:37:22.343Z,66.90
2019-02-07T08:40:10.337Z,69.80
2019-02-07T08:43:12.026Z,68.43
2019-02-07T08:46:07.184Z,68.00
2019-02-07T08:48:50.384Z,66.33
2019-02-07T08:51:43.161Z,64.50
2019-02-07T08:54:28.537Z,70.93
2019-02-07T08:57:12.346Z,74.53
2019-02-07T09:00:01.587Z,76.83
2019-02-07T09:02:51.610Z,74.70
2019-02-07T09:05:36.299Z,77.33
2019-02-07T09:08:26.198Z,76.60
2019-02-07T09:11:14.105Z,74.13
2019-02-07T09:14:02.019Z,77.10
2019-02-07T09:16:57.549Z,72.80
2019-02-07T09:19:45.981Z,72.83
2019-02-07T09:22:42.105Z,78.80
2019-02-07T09:25:36.074Z,77.90
2019-02-07T09:28:28.400Z,73.23
2019-02-07T09:31:24.068Z,73.27
2019-02-07T09:34:25.743Z,71.67
2019-02-07T09:37:07.710Z,68.70
2019-02-07T09:39:44.574Z,68.87
2019-02-07T09:42:26.561Z,64.50
2019-02-07T09:45:16.003Z,74.47
2019-02-07T09:48:21.318Z,72.53
2019-02-07T09:51:06.242Z,66.37
2019-02-07T09:53:55.481Z,71.47
2019-02-07T09:56:48.458Z,72.00
2019-02-07T09:59:36.485Z,70.97
2019-02-07T10:02:24.750Z,77.27
2019-02-07T10:05:04.594Z,77.20
2019-02-07T10:07:48.138Z,87.60
2019-02-07T10:10:29.891Z,71.50
2019-02-07T10:13:34.767Z,81.30
2019-02-07T10:16:24.490Z,81.93
2019-02-07T10:19:28.882Z,76.13
2019-02-07T10:22:17.791Z,81.97
2019-02-07T10:25:06.207Z,77.70
2019-02-07T10:28:04.582Z,80.07
2019-02-07T10:33:55.321Z,74.50
2019-02-07T10:36:54.726Z,79.93
2019-02-07T10:39:36.478Z,69.50
2019-02-07T10:42:19.772Z,73.70
2019-02-07T10:45:09.138Z,74.20
2019-02-07T10:48:10.756Z,67.13
2019-02-07T10:51:03.074Z,71.40
2019-02-07T10:53:42.468Z,67.37
2019-02-07T10:56:34.655Z,64.43
2019-02-07T10:59:22.736Z,72.50
2019-02-07T11:02:10.847Z,64.40
2019-02-07T11:04:58.752Z,76.00
2019-02-07T11:07:41.796Z,76.93
2019-02-07T11:10:48.511Z,67.07
2019-02-07T11:13:52.959Z,64.30
2019-02-07T11:16:55.449Z,72.53
2019-02-07T11:19:44.674Z,70.63
2019-02-07T11:22:36.436Z,64.27
2019-02-07T11:25:44.208Z,69.70
2019-02-07T11:28:33.514Z,62.63
2019-02-07T11:31:11.353Z,61.23
2019-02-07T11:33:47.903Z,70.87
2019-02-07T11:36:35.509Z,60.33
2019-02-07T11:39:29.856Z,60.90
2019-02-07T11:42:17.901Z,69.13
2019-02-07T11:45:16.320Z,64.67
2019-02-07T11:48:05.593Z,62.83
2019-02-07T11:50:53.736Z,60.07
2019-02-07T11:53:52.085Z,62.37
2019-02-07T11:56:31.578Z,61.70
2019-02-07T11:59:18.920Z,73.03
2019-02-07T12:02:09.232Z,60.50
2019-02-07T12:04:55.824Z,69.20
2019-02-07T12:07:38.159Z,65.47
2019-02-07T12:10:32.034Z,57.93
2019-02-07T12:13:20.575Z,56.83
2019-02-07T12:16:09.828Z,59.10
2019-02-07T12:18:57.667Z,64.23
2019-02-07T12:21:35.529Z,55.60
2019-02-07T12:24:23.732Z,63.47
2019-02-07T12:27:22.197Z,58.47
2019-02-07T12:30:11.992Z,62.43
2019-02-07T12:33:11.125Z,60.83
2019-02-07T12:35:54.523Z,56.07
2019-02-07T12:38:46.861Z,58.30
2019-02-07T12:41:28.369Z,56.50
2019-02-07T12:44:17.669Z,58.10
2019-02-07T12:47:04.297Z,58.47
2019-02-07T12:49:59.518Z,55.77
2019-02-07T12:52:48.213Z,56.90
2019-02-07T12:55:52.292Z,59.90
2019-02-07T12:58:55.775Z,62.13
2019-02-07T13:01:38.892Z,62.67
2019-02-07T13:04:29.944Z,61.20
2019-02-07T13:07:19.181Z,65.63
2019-02-07T13:10:17.807Z,68.87
2019-02-07T13:13:19.062Z,64.20
2019-02-07T13:16:11.386Z,69.30
2019-02-07T13:19:12.890Z,67.60
2019-02-07T13:22:01.101Z,65.30
2019-02-07T13:24:49.363Z,71.80
2019-02-07T13:27:35.325Z,68.00
2019-02-07T13:30:27.982Z,65.63
2019-02-07T13:33:32.624Z,72.73
2019-02-07T13:36:22.065Z,79.27
2019-02-07T13:39:10.416Z,67.30
2019-02-07T13:41:52.669Z,69.23
2019-02-07T13:44:36.138Z,72.40
2019-02-07T13:47:24.297Z,80.03
2019-02-07T13:50:11.082Z,68.03
2019-02-07T13:52:52.813Z,79.77
2019-02-07T13:55:37.402Z,75.83
2019-02-07T13:58:29.212Z,72.27
2019-02-07T14:01:27.672Z,76.77
2019-02-07T14:04:15.731Z,79.50
2019-02-07T14:07:20.374Z,77.90
2019-02-07T14:09:59.748Z,75.23
2019-02-07T14:12:48.084Z,79.53
2019-02-07T14:15:27.838Z,80.43
2019-02-07T14:18:26.319Z,87.10
2019-02-07T14:21:16.009Z,86.10
2019-02-07T14:24:11.169Z,75.83
2019-02-07T14:27:13.092Z,78.13
2019-02-07T14:29:56.985Z,94.40
2019-02-07T14:32:49.694Z,90.60
2019-02-07T14:35:38.104Z,80.83
2019-02-07T14:38:36.970Z,86.80
2019-02-07T14:41:26.570Z,92.73
2019-02-07T14:44:12.249Z,95.33
2019-02-07T14:46:48.022Z,90.83
2019-02-07T14:49:19.292Z,93.97
2019-02-07T14:51:49.917Z,95.53
2019-02-07T14:54:20.377Z,98.57
2019-02-07T14:56:50.883Z,108.63
2019-02-07T14:59:21.249Z,93.93
2019-02-07T15:01:51.896Z,100.77
2019-02-07T15:04:22.258Z,86.57
2019-02-07T15:06:53.164Z,90.63
2019-02-07T15:09:24.087Z,93.87
2019-02-07T15:11:54.595Z,90.70
2019-02-07T15:14:25.492Z,86.23
2019-02-07T15:16:56.473Z,84.00
2019-02-07T15:19:26.765Z,92.57
2019-02-07T15:21:56.977Z,103.33
2019-02-07T15:24:27.943Z,95.87
2019-02-07T15:26:58.212Z,105.27
2019-02-07T15:29:28.732Z,94.00
2019-02-07T15:31:58.955Z,89.67
2019-02-07T15:34:29.862Z,98.30
2019-02-07T15:37:00.762Z,87.80
2019-02-07T15:39:31.242Z,92.73
2019-02-07T15:42:01.721Z,97.17
2019-02-07T15:44:33.653Z,102.20
2019-02-07T15:47:05.163Z,98.47
2019-02-07T15:49:35.402Z,97.13
2019-02-07T15:52:06.073Z,89.23
2019-02-07T15:54:36.928Z,93.73
2019-02-07T15:57:07.414Z,89.47
2019-02-07T15:59:43.776Z,88.30
2019-02-07T16:02:39.432Z,86.57
2019-02-07T16:05:12.413Z,87.83
2019-02-07T16:07:42.716Z,87.27
2019-02-07T16:10:15.753Z,91.60
2019-02-07T16:12:46.193Z,88.23
2019-02-07T16:15:17.106Z,107.83
2019-02-07T16:17:47.500Z,98.23
2019-02-07T16:20:19.197Z,95.97
2019-02-07T16:22:49.845Z,91.57
2019-02-07T16:25:20.295Z,92.20
2019-02-07T16:27:51.174Z,94.13
2019-02-07T16:30:21.943Z,92.33
2019-02-07T16:32:52.330Z,93.03
2019-02-07T16:35:23.220Z,91.63
2019-02-07T16:37:53.594Z,93.20
2019-02-07T16:40:24.625Z,88.80
2019-02-07T16:42:55.120Z,96.07
2019-02-07T16:45:26.600Z,84.43
2019-02-07T16:47:56.991Z,84.73
2019-02-07T16:50:27.415Z,89.97
2019-02-07T16:52:57.762Z,86.67
2019-02-07T16:55:28.190Z,92.77
2019-02-07T16:57:58.487Z,86.57
2019-02-07T17:00:29.458Z,87.93
2019-02-07T17:03:00.207Z,80.77
2019-02-07T17:05:30.904Z,80.97
2019-02-07T17:08:01.213Z,82.33
2019-02-07T17:10:33.744Z,71.87
2019-02-07T17:13:05.658Z,88.63
2019-02-07T17:15:36.483Z,83.90
2019-02-07T17:18:07.028Z,79.73
2019-02-07T17:20:37.837Z,83.80
2019-02-07T17:23:08.242Z,89.63
2019-02-07T17:25:38.948Z,87.57
2019-02-07T17:28:09.275Z,109.67
2019-02-07T17:30:39.614Z,96.57
2019-02-07T17:33:10.206Z,90.87
2019-02-07T17:35:40.490Z,94.50
2019-02-07T17:38:10.987Z,89.77
2019-02-07T17:40:41.202Z,105.23
2019-02-07T17:43:11.727Z,95.90
2019-02-07T17:45:41.822Z,94.87
2019-02-07T17:48:12.175Z,97.77
2019-02-07T17:50:42.767Z,91.00
2019-02-07T17:53:13.061Z,84.80
2019-02-07T17:55:43.392Z,76.17
2019-02-07T17:58:14.054Z,94.47
2019-02-07T18:01:04.599Z,97.70
2019-02-07T18:03:36.390Z,86.93
2019-02-07T18:06:08.824Z,90.33
2019-02-07T18:08:39.151Z,76.60
2019-02-07T18:11:09.609Z,104.00
2019-02-07T18:13:40.244Z,108.13
2019-02-07T18:16:10.667Z,99.90
2019-02-07T18:18:40.818Z,106.07
2019-02-07T18:21:11.391Z,102.70
2019-02-07T18:23:41.833Z,105.63
2019-02-07T18:26:12.342Z,93.13
2019-02-07T18:28:42.581Z,106.33
2019-02-07T18:31:12.987Z,104.27
2019-02-07T18:33:43.733Z,108.70
2019-02-07T18:36:14.095Z,112.13
2019-02-07T18:38:44.343Z,116.47
2019-02-07T18:41:14.780Z,107.57
2019-02-07T18:43:45.304Z,94.93
2019-02-07T18:46:15.594Z,106.43
2019-02-07T18:48:45.782Z,119.10
2019-02-07T18:51:15.997Z,131.80
2019-02-07T18:53:46.209Z,111.33
2019-02-07T18:56:16.306Z,110.60
2019-02-07T18:58:46.611Z,103.50
2019-02-07T19:01:16.751Z,97.37
2019-02-07T19:03:47.408Z,100.37
2019-02-07T19:06:17.681Z,115.20
2019-02-07T19:08:48.114Z,119.47
2019-02-07T19:11:18.233Z,106.30
2019-02-07T19:13:48.439Z,90.17
2019-02-07T19:16:19.972Z,106.87
2019-02-07T19:18:50.394Z,119.60
2019-02-07T19:21:20.606Z,124.73
2019-02-07T19:23:50.708Z,114.17
2019-02-07T19:26:21.229Z,130.83
2019-02-07T19:28:51.462Z,150.97
2019-02-07T19:31:21.789Z,100.93
2019-02-07T19:33:52.505Z,103.27
2019-02-07T19:36:23.329Z,94.67
2019-02-07T19:38:53.438Z,126.03
2019-02-07T19:41:23.582Z,133.63
2019-02-07T19:43:53.694Z,132.73
2019-02-07T19:46:24.347Z,126.67
2019-02-07T19:48:54.597Z,138.77
2019-02-07T19:51:25.181Z,120.00
2019-02-07T19:53:55.814Z,113.47
2019-02-07T19:56:25.984Z,119.83
2019-02-07T19:58:56.375Z,108.57
2019-02-07T20:01:26.788Z,114.17
2019-02-07T20:03:57.285Z,106.77
2019-02-07T20:06:27.588Z,90.80
2019-02-07T20:08:57.930Z,116.90
2019-02-07T20:11:28.219Z,118.37
2019-02-07T20:13:58.441Z,142.27
2019-02-07T20:16:28.608Z,130.13
2019-02-07T20:18:58.832Z,115.30
2019-02-07T20:21:29.353Z,131.13
2019-02-07T20:23:59.992Z,111.90
2019-02-07T20:26:30.086Z,107.07
2019-02-07T20:29:00.467Z,113.17
2019-02-07T20:31:30.821Z,91.83
2019-02-07T20:34:01.015Z,98.60
2019-02-07T20:36:31.178Z,88.03
2019-02-07T20:39:01.374Z,97.73
2019-02-07T20:41:31.622Z,104.40
2019-02-07T20:44:01.890Z,128.30
2019-02-07T20:46:32.702Z,99.00
2019-02-07T20:49:02.803Z,109.40
2019-02-07T20:51:33.186Z,95.77
2019-02-07T20:54:03.462Z,123.80
2019-02-07T20:56:33.637Z,127.27
2019-02-07T20:59:03.742Z,126.67
2019-02-07T21:01:34.394Z,139.77
2019-02-07T21:04:05.055Z,164.10
2019-02-07T21:06:35.213Z,124.63
2019-02-07T21:09:09.813Z,120.53
2019-02-07T21:11:40.152Z,132.80
2019-02-07T21:14:10.365Z,138.70
2019-02-07T21:16:40.525Z,129.73
2019-02-07T21:19:11.050Z,115.17
2019-02-07T21:21:41.172Z,116.93
2019-02-07T21:24:11.560Z,109.67
2019-02-07T21:26:41.743Z,125.53
2019-02-07T21:29:11.941Z,140.70
2019-02-07T21:31:42.888Z,129.97
2019-02-07T21:34:12.983Z,133.33
2019-02-07T21:36:43.083Z,128.73
2019-02-07T21:39:13.343Z,112.20
2019-02-07T21:41:43.589Z,117.60
2019-02-07T21:44:13.994Z,129.03
2019-02-07T21:46:44.436Z,152.73
2019-02-07T21:49:14.631Z,156.73
2019-02-07T21:51:45.078Z,175.80
2019-02-07T21:54:15.523Z,144.53
2019-02-07T21:56:45.731Z,141.47
2019-02-07T21:59:16.244Z,162.17
2019-02-07T22:01:46.647Z,163.13
2019-02-07T22:04:17.105Z,146.67
2019-02-07T22:06:47.190Z,150.33
2019-02-07T22:09:17.438Z,165.77
2019-02-07T22:11:48.046Z,168.43
2019-02-07T22:14:18.559Z,150.27
2019-02-07T22:16:48.993Z,146.53
2019-02-07T22:19:19.305Z,156.50
2019-02-07T22:21:49.566Z,158.93
2019-02-07T22:24:19.721Z,145.37
2019-02-07T22:26:49.829Z,131.43
2019-02-07T22:29:20.651Z,141.93
2019-02-07T22:31:51.105Z,126.73
2019-02-07T22:34:21.435Z,126.87
2019-02-07T22:36:51.650Z,149.10
2019-02-07T22:39:21.817Z,133.53
2019-02-07T22:41:51.991Z,102.40
2019-02-07T22:44:22.389Z,121.47
2019-02-07T22:46:52.590Z,102.43
2019-02-07T22:49:25.711Z,110.37
2019-02-07T22:51:55.813Z,155.67
2019-02-07T22:54:25.981Z,150.07
2019-02-07T22:56:56.974Z,140.57
2019-02-07T22:59:28.233Z,161.43
2019-02-07T23:01:58.776Z,165.47
2019-02-07T23:04:30.099Z,151.57
2019-02-07T23:07:00.761Z,140.67
2019-02-07T23:09:31.058Z,153.33
2019-02-07T23:12:02.089Z,125.50
2019-02-07T23:14:32.562Z,103.13
2019-02-07T23:17:03.192Z,120.63
2019-02-07T23:19:33.581Z,108.77
2019-02-07T23:22:04.037Z,102.33
2019-02-07T23:24:34.497Z,102.70
2019-02-07T23:27:04.996Z,144.23
2019-02-07T23:29:35.366Z,121.87
2019-02-07T23:32:05.908Z,144.20
2019-02-07T23:34:36.574Z,166.60
2019-02-07T23:37:07.001Z,160.77
2019-02-07T23:39:37.303Z,149.00
2019-02-07T23:42:07.683Z,195.03
2019-02-07T23:44:38.440Z,179.27
2019-02-07T23:47:08.953Z,153.33
2019-02-07T23:49:39.273Z,142.53
2019-02-07T23:52:09.581Z,147.53
2019-02-07T23:54:40.451Z,130.37
2019-02-07T23:57:10.975Z,142.00
2019-02-07T23:59:41.269Z,144.77
